Time;durP1;ratioP1;P1;durP2;ratioP2;P2;SDS_P1;SDS_P2;PMS_P1;PMS_P2;Temp;Humidity;BMP_temperature;BMP_pressure;BME280_temperature;BME280_humidity;BME280_pressure;Samples;Min_cycle;Max_cycle;Signal;HPM_P1;HPM_P2
2023/07/17 00:00:57;;;;;;;;;6.00;5.67;;;;;;;;5111998;27;45401;-75
2023/07/17 00:03:24;;;;;;;;;4.33;4.33;;;;;;;;5111103;27;45327;-75
2023/07/17 00:05:50;;;;;;;;;5.00;5.00;;;;;;;;5110768;27;45559;-75
2023/07/17 00:08:15;;;;;;;;;3.00;3.00;;;;;;;;5109648;27;45259;-75
2023/07/17 00:10:42;;;;;;;;;5.67;5.67;;;;;;;;5092854;27;44736;-75
2023/07/17 00:13:07;;;;;;;;;6.33;6.33;;;;;;;;5110748;27;45301;-75
2023/07/17 00:15:32;;;;;;;;;5.67;3.67;;;;;;;;5093023;27;47134;-76
2023/07/17 00:17:58;;;;;;;;;6.33;6.33;;;;;;;;5110841;27;45215;-75
2023/07/17 00:20:23;;;;;;;;;6.00;6.00;;;;;;;;5099760;27;45194;-75
2023/07/17 00:22:48;;;;;;;;;7.33;6.67;;;;;;;;5072575;28;46100;-75
2023/07/17 00:25:13;;;;;;;;;7.00;6.67;;;;;;;;5089624;28;45165;-76
2023/07/17 00:27:39;;;;;;;;;7.33;6.00;;;;;;;;5090338;28;45239;-75
2023/07/17 00:30:04;;;;;;;;;6.33;6.33;;;;;;;;5105042;27;45206;-75
2023/07/17 00:32:29;;;;;;;;;6.67;6.67;;;;;;;;5110860;27;45380;-75
2023/07/17 00:34:54;;;;;;;;;10.00;8.33;;;;;;;;5109798;27;45213;-74
2023/07/17 00:37:20;;;;;;;;;7.67;7.67;;;;;;;;5110438;27;45132;-75
2023/07/17 00:39:45;;;;;;;;;6.67;6.67;;;;;;;;5109688;27;45191;-75
2023/07/17 00:42:10;;;;;;;;;6.33;5.33;;;;;;;;5109584;27;45317;-75
2023/07/17 00:44:35;;;;;;;;;3.67;2.33;;;;;;;;5110336;27;45074;-75
2023/07/17 00:47:01;;;;;;;;;5.67;5.67;;;;;;;;5091220;27;45293;-75
2023/07/17 00:49:28;;;;;;;;;5.33;5.33;;;;;;;;5091858;27;45289;-75
2023/07/17 00:51:55;;;;;;;;;8.00;7.00;;;;;;;;5110536;27;45319;-75
2023/07/17 00:54:21;;;;;;;;;5.00;4.00;;;;;;;;5091113;27;48098;-75
2023/07/17 00:56:46;;;;;;;;;6.00;6.00;;;;;;;;5110647;27;45315;-75
2023/07/17 00:59:12;;;;;;;;;7.00;6.00;;;;;;;;5092104;27;44706;-75
2023/07/17 01:01:38;;;;;;;;;6.00;4.67;;;;;;;;5109367;27;45265;-75
2023/07/17 01:04:04;;;;;;;;;6.00;5.67;;;;;;;;5109345;27;45097;-75
2023/07/17 01:06:30;;;;;;;;;7.00;4.00;;;;;;;;5090980;27;45310;-75
2023/07/17 01:08:56;;;;;;;;;6.67;5.33;;;;;;;;5108854;27;45227;-75
2023/07/17 01:11:21;;;;;;;;;7.33;5.67;;;;;;;;5093557;27;47854;-75
2023/07/17 01:13:49;;;;;;;;;9.00;7.33;;;;;;;;5113141;27;45274;-75
2023/07/17 01:16:15;;;;;;;;;6.00;6.00;;;;;;;;5111990;27;45223;-75
2023/07/17 01:18:40;;;;;;;;;5.00;5.00;;;;;;;;5094065;27;45663;-75
2023/07/17 01:21:08;;;;;;;;;5.67;5.33;;;;;;;;5111742;27;45424;-75
2023/07/17 01:23:33;;;;;;;;;5.00;5.00;;;;;;;;5111763;27;45191;-74
2023/07/17 01:25:59;;;;;;;;;7.33;7.33;;;;;;;;5112345;27;45364;-74
2023/07/17 01:28:24;;;;;;;;;3.67;3.00;;;;;;;;5113091;27;45217;-74
2023/07/17 01:30:49;;;;;;;;;5.00;5.00;;;;;;;;5093669;27;46439;-75
2023/07/17 01:33:14;;;;;;;;;4.00;4.00;;;;;;;;5110179;27;45734;-75
2023/07/17 01:35:40;;;;;;;;;5.00;5.00;;;;;;;;5110633;27;45301;-75
2023/07/17 01:38:05;;;;;;;;;6.00;5.33;;;;;;;;5111407;27;45230;-74
2023/07/17 01:40:30;;;;;;;;;6.00;6.00;;;;;;;;5110883;27;45133;-74
2023/07/17 01:42:55;;;;;;;;;5.67;5.67;;;;;;;;5093380;27;47433;-74
2023/07/17 01:45:21;;;;;;;;;7.67;6.00;;;;;;;;5110766;27;45265;-76
2023/07/17 01:47:46;;;;;;;;;5.00;5.00;;;;;;;;5110742;27;45352;-75
2023/07/17 01:50:11;;;;;;;;;7.33;6.67;;;;;;;;5092604;27;46462;-75
2023/07/17 01:52:36;;;;;;;;;6.67;5.67;;;;;;;;5091308;27;47161;-75
2023/07/17 01:55:01;;;;;;;;;6.33;6.33;;;;;;;;5111777;27;45206;-74
2023/07/17 01:57:27;;;;;;;;;7.00;7.00;;;;;;;;5092373;27;45270;-74
2023/07/17 01:59:52;;;;;;;;;3.33;3.33;;;;;;;;5110307;27;45511;-74
2023/07/17 02:02:17;;;;;;;;;5.00;4.67;;;;;;;;5108999;27;45067;-74
2023/07/17 02:04:42;;;;;;;;;6.67;6.67;;;;;;;;5109163;27;45336;-74
2023/07/17 02:07:07;;;;;;;;;7.00;7.00;;;;;;;;5110908;27;45688;-75
2023/07/17 02:09:33;;;;;;;;;5.00;5.00;;;;;;;;5109612;27;45217;-74
2023/07/17 02:11:58;;;;;;;;;6.67;6.33;;;;;;;;5091849;27;46784;-75
2023/07/17 02:14:23;;;;;;;;;8.00;8.00;;;;;;;;5091641;27;45889;-75
2023/07/17 02:16:48;;;;;;;;;8.00;6.00;;;;;;;;5091714;27;45370;-75
2023/07/17 02:19:15;;;;;;;;;8.67;7.67;;;;;;;;5109308;27;45289;-76
2023/07/17 02:21:40;;;;;;;;;8.67;8.00;;;;;;;;5108248;27;45122;-75
2023/07/17 02:24:05;;;;;;;;;7.00;7.00;;;;;;;;5109321;27;45353;-75
2023/07/17 02:26:30;;;;;;;;;6.33;6.00;;;;;;;;5091168;27;45370;-75
2023/07/17 02:28:55;;;;;;;;;7.00;7.00;;;;;;;;5103357;27;45384;-75
2023/07/17 02:31:21;;;;;;;;;7.00;6.67;;;;;;;;5069385;28;47288;-74
2023/07/17 02:33:46;;;;;;;;;5.67;5.67;;;;;;;;5070229;28;45658;-75
2023/07/17 02:36:12;;;;;;;;;7.67;6.00;;;;;;;;5070714;28;44693;-74
2023/07/17 02:38:37;;;;;;;;;8.00;6.00;;;;;;;;5070095;28;45978;-75
2023/07/17 02:41:02;;;;;;;;;10.00;7.00;;;;;;;;5087715;28;45497;-74
2023/07/17 02:43:27;;;;;;;;;7.33;7.33;;;;;;;;5087624;28;45422;-75
2023/07/17 02:45:52;;;;;;;;;7.00;5.00;;;;;;;;5087998;28;45268;-74
2023/07/17 02:48:18;;;;;;;;;7.67;7.00;;;;;;;;5088051;28;45282;-75
2023/07/17 02:50:43;;;;;;;;;7.00;7.00;;;;;;;;5087973;28;46466;-74
2023/07/17 02:53:08;;;;;;;;;5.00;5.00;;;;;;;;5088129;28;45118;-75
2023/07/17 02:55:34;;;;;;;;;6.33;6.33;;;;;;;;5087937;28;45226;-74
2023/07/17 02:57:59;;;;;;;;;7.00;7.00;;;;;;;;5069653;28;46095;-75
2023/07/17 03:00:25;;;;;;;;;7.33;7.33;;;;;;;;5069897;28;47216;-74
2023/07/17 03:02:50;;;;;;;;;5.33;5.33;;;;;;;;5088624;28;45243;-74
2023/07/17 03:05:15;;;;;;;;;6.00;6.00;;;;;;;;5088560;28;45176;-75
2023/07/17 03:07:42;;;;;;;;;7.00;7.00;;;;;;;;5087702;28;45196;-75
2023/07/17 03:10:07;;;;;;;;;5.00;5.00;;;;;;;;5089090;28;45212;-75
2023/07/17 03:12:33;;;;;;;;;6.67;6.67;;;;;;;;5088261;28;45393;-75
2023/07/17 03:14:58;;;;;;;;;4.00;4.00;;;;;;;;5087930;28;44753;-74
2023/07/17 03:17:23;;;;;;;;;7.33;7.33;;;;;;;;5086806;28;45445;-75
2023/07/17 03:19:50;;;;;;;;;6.33;4.67;;;;;;;;5068947;28;48206;-74
2023/07/17 03:22:16;;;;;;;;;7.00;5.33;;;;;;;;5087153;28;45339;-75
2023/07/17 03:24:41;;;;;;;;;6.00;5.00;;;;;;;;5089178;28;45282;-77
2023/07/17 03:27:06;;;;;;;;;5.00;3.00;;;;;;;;5089503;28;45280;-75
2023/07/17 03:29:31;;;;;;;;;7.00;6.00;;;;;;;;5081426;27;48357;-74
2023/07/17 03:31:56;;;;;;;;;6.67;6.67;;;;;;;;5109388;27;45317;-75
2023/07/17 03:34:22;;;;;;;;;10.00;8.33;;;;;;;;5110363;27;45391;-75
2023/07/17 03:36:47;;;;;;;;;6.00;6.00;;;;;;;;5090179;27;45305;-75
2023/07/17 03:39:12;;;;;;;;;5.00;5.00;;;;;;;;5109199;27;45285;-75
2023/07/17 03:41:37;;;;;;;;;7.67;7.00;;;;;;;;5108945;27;45404;-74
2023/07/17 03:44:03;;;;;;;;;8.33;8.33;;;;;;;;5090175;27;45244;-75
2023/07/17 03:46:29;;;;;;;;;5.33;5.00;;;;;;;;5109619;27;45218;-75
2023/07/17 03:48:54;;;;;;;;;4.00;4.00;;;;;;;;5109452;27;45171;-75
2023/07/17 03:51:19;;;;;;;;;10.00;8.33;;;;;;;;5091235;27;45162;-74
2023/07/17 03:53:44;;;;;;;;;8.00;7.00;;;;;;;;5108647;27;45176;-75
2023/07/17 03:56:10;;;;;;;;;8.00;8.00;;;;;;;;5109608;27;45207;-74
2023/07/17 03:58:35;;;;;;;;;9.00;8.00;;;;;;;;5108895;27;45367;-75
2023/07/17 04:01:00;;;;;;;;;7.67;6.67;;;;;;;;5090784;27;45220;-75
2023/07/17 04:03:25;;;;;;;;;10.00;8.33;;;;;;;;5091764;27;45329;-74
2023/07/17 04:05:50;;;;;;;;;8.33;6.67;;;;;;;;5107693;27;45489;-75
2023/07/17 04:08:16;;;;;;;;;8.33;7.67;;;;;;;;5109762;27;45407;-75
2023/07/17 04:10:41;;;;;;;;;8.33;8.00;;;;;;;;5108834;27;45191;-74
2023/07/17 04:13:06;;;;;;;;;10.00;8.33;;;;;;;;5108446;27;44653;-74
2023/07/17 04:15:31;;;;;;;;;8.00;8.00;;;;;;;;5089850;27;45297;-74
2023/07/17 04:17:57;;;;;;;;;6.00;6.00;;;;;;;;5108011;27;45302;-74
2023/07/17 04:20:22;;;;;;;;;6.00;6.00;;;;;;;;5109382;27;45493;-75
2023/07/17 04:22:47;;;;;;;;;5.33;4.67;;;;;;;;5109202;27;45301;-75
2023/07/17 04:25:12;;;;;;;;;8.00;7.67;;;;;;;;5075000;28;47283;-75
2023/07/17 04:27:37;;;;;;;;;5.33;5.33;;;;;;;;5086119;28;45194;-74
2023/07/17 04:30:03;;;;;;;;;7.00;6.00;;;;;;;;5083375;27;44887;-75
2023/07/17 04:32:28;;;;;;;;;6.33;6.33;;;;;;;;5108556;27;45275;-74
2023/07/17 04:34:54;;;;;;;;;7.67;6.00;;;;;;;;5106900;27;45344;-75
2023/07/17 04:37:19;;;;;;;;;7.00;5.33;;;;;;;;5107085;27;45392;-76
2023/07/17 04:39:44;;;;;;;;;7.67;7.67;;;;;;;;5106423;27;45388;-75
2023/07/17 04:42:09;;;;;;;;;6.67;5.67;;;;;;;;5107487;27;45545;-75
2023/07/17 04:44:34;;;;;;;;;5.00;5.00;;;;;;;;5106748;27;45552;-74
2023/07/17 04:47:00;;;;;;;;;10.33;8.00;;;;;;;;5110944;27;45393;-75
2023/07/17 04:49:25;;;;;;;;;6.00;6.00;;;;;;;;5093713;27;45924;-75
2023/07/17 04:51:50;;;;;;;;;5.00;5.00;;;;;;;;5104429;27;45359;-75
2023/07/17 04:54:15;;;;;;;;;5.33;5.33;;;;;;;;5103450;27;45512;-75
2023/07/17 04:56:41;;;;;;;;;6.33;4.00;;;;;;;;5103625;27;45364;-75
2023/07/17 04:59:06;;;;;;;;;7.67;7.33;;;;;;;;5103623;27;45314;-75
2023/07/17 05:01:31;;;;;;;;;6.00;6.00;;;;;;;;5103712;27;45325;-75
2023/07/17 05:03:56;;;;;;;;;6.67;6.00;;;;;;;;5084817;27;46073;-74
2023/07/17 05:06:21;;;;;;;;;7.00;6.33;;;;;;;;5103313;27;46665;-74
2023/07/17 05:08:46;;;;;;;;;6.00;4.33;;;;;;;;5084552;27;45344;-75
2023/07/17 05:11:12;;;;;;;;;9.33;8.00;;;;;;;;5084972;27;45443;-74
2023/07/17 05:13:37;;;;;;;;;7.00;7.00;;;;;;;;5103459;27;45284;-74
2023/07/17 05:16:02;;;;;;;;;6.00;6.00;;;;;;;;5103384;27;46317;-75
2023/07/17 05:18:27;;;;;;;;;4.00;4.00;;;;;;;;5103862;27;45358;-75
2023/07/17 05:20:53;;;;;;;;;6.00;6.00;;;;;;;;5087061;27;45488;-75
2023/07/17 05:23:18;;;;;;;;;6.67;6.33;;;;;;;;5084131;28;45550;-78
2023/07/17 05:25:52;;;;;;;;;5.67;5.67;;;;;;;;5064789;28;47240;-74
2023/07/17 05:28:17;;;;;;;;;5.00;5.00;;;;;;;;5082550;27;45280;-74
2023/07/17 05:30:42;;;;;;;;;4.33;4.33;;;;;;;;5103139;27;45344;-73
2023/07/17 05:33:07;;;;;;;;;5.33;4.67;;;;;;;;5084650;27;45845;-74
2023/07/17 05:35:33;;;;;;;;;5.00;5.00;;;;;;;;5102932;27;46251;-73
2023/07/17 05:37:58;;;;;;;;;5.33;5.33;;;;;;;;5102768;27;45260;-73
2023/07/17 05:40:24;;;;;;;;;5.00;5.00;;;;;;;;5084534;27;45295;-74
2023/07/17 05:42:49;;;;;;;;;4.00;4.00;;;;;;;;5102136;27;45278;-73
2023/07/17 05:45:14;;;;;;;;;3.33;3.33;;;;;;;;5102524;27;45273;-73
2023/07/17 05:47:40;;;;;;;;;4.67;4.67;;;;;;;;5102736;27;45343;-73
2023/07/17 05:50:06;;;;;;;;;5.00;5.00;;;;;;;;5102963;27;45349;-73
2023/07/17 05:52:32;;;;;;;;;4.67;4.67;;;;;;;;5102508;27;45331;-74
2023/07/17 05:54:57;;;;;;;;;5.00;5.00;;;;;;;;5083878;27;46825;-73
2023/07/17 05:57:22;;;;;;;;;8.00;6.00;;;;;;;;5102465;27;45318;-73
2023/07/17 05:59:47;;;;;;;;;4.33;4.33;;;;;;;;5102801;27;45297;-73
2023/07/17 06:02:12;;;;;;;;;4.67;4.67;;;;;;;;5084338;27;47232;-73
2023/07/17 06:04:38;;;;;;;;;8.00;6.67;;;;;;;;5083774;27;46511;-73
2023/07/17 06:07:04;;;;;;;;;5.67;4.67;;;;;;;;5084017;27;45261;-73
2023/07/17 06:09:29;;;;;;;;;5.33;4.33;;;;;;;;5102402;27;45387;-73
2023/07/17 06:11:54;;;;;;;;;4.00;4.00;;;;;;;;5070345;28;46207;-73
2023/07/17 06:14:20;;;;;;;;;3.33;3.33;;;;;;;;5065610;28;45423;-73
2023/07/17 06:16:45;;;;;;;;;6.00;4.00;;;;;;;;5043424;28;45368;-73
2023/07/17 06:19:10;;;;;;;;;5.00;5.00;;;;;;;;5060203;28;45605;-73
2023/07/17 06:21:35;;;;;;;;;4.00;4.00;;;;;;;;5061410;28;45584;-73
2023/07/17 06:24:00;;;;;;;;;3.67;3.00;;;;;;;;5061074;28;45327;-73
2023/07/17 06:26:25;;;;;;;;;2.00;2.00;;;;;;;;5061960;28;45598;-74
2023/07/17 06:28:51;;;;;;;;;4.00;3.00;;;;;;;;5085026;28;45250;-74
2023/07/17 06:31:16;;;;;;;;;5.00;3.00;;;;;;;;5064356;28;46263;-74
2023/07/17 06:33:41;;;;;;;;;3.00;3.00;;;;;;;;5062503;28;48299;-74
2023/07/17 06:36:06;;;;;;;;;3.00;3.00;;;;;;;;5081983;28;45298;-73
2023/07/17 06:38:31;;;;;;;;;5.00;3.00;;;;;;;;5083247;28;45372;-74
2023/07/17 06:40:57;;;;;;;;;6.00;3.33;;;;;;;;5083619;28;45475;-76
2023/07/17 06:43:22;;;;;;;;;2.33;2.33;;;;;;;;5082317;28;46303;-77
2023/07/17 06:45:47;;;;;;;;;6.33;5.00;;;;;;;;5065494;28;45313;-76
2023/07/17 06:48:12;;;;;;;;;2.67;2.00;;;;;;;;5076058;28;45295;-74
2023/07/17 06:50:37;;;;;;;;;2.67;2.67;;;;;;;;5078750;28;46283;-75
2023/07/17 06:53:02;;;;;;;;;2.67;2.67;;;;;;;;5085817;28;45338;-76
2023/07/17 06:55:28;;;;;;;;;3.33;2.00;;;;;;;;5089238;28;45359;-75
2023/07/17 06:57:53;;;;;;;;;2.33;2.33;;;;;;;;5098773;28;44689;-76
2023/07/17 07:00:18;;;;;;;;;3.00;2.00;;;;;;;;5095124;28;44741;-75
2023/07/17 07:02:43;;;;;;;;;2.33;2.33;;;;;;;;5092933;28;46186;-74
2023/07/17 07:05:09;;;;;;;;;6.00;3.33;;;;;;;;5076826;28;45559;-75
2023/07/17 07:07:34;;;;;;;;;4.00;2.33;;;;;;;;5092116;28;45203;-73
2023/07/17 07:09:59;;;;;;;;;9.00;8.67;;;;;;;;5086244;28;45637;-74
2023/07/17 07:12:24;;;;;;;;;3.33;3.33;;;;;;;;5087018;28;45220;-76
2023/07/17 07:14:49;;;;;;;;;3.67;3.67;;;;;;;;5091414;28;45181;-75
2023/07/17 07:17:15;;;;;;;;;3.67;3.00;;;;;;;;5090143;28;44632;-74
2023/07/17 07:19:40;;;;;;;;;2.67;2.33;;;;;;;;5076531;28;46204;-75
2023/07/17 07:22:05;;;;;;;;;4.00;3.00;;;;;;;;5099271;28;46466;-75
2023/07/17 07:24:30;;;;;;;;;4.00;4.00;;;;;;;;5077802;28;45216;-75
2023/07/17 07:26:55;;;;;;;;;2.33;2.33;;;;;;;;5071992;28;45510;-74
2023/07/17 07:29:23;;;;;;;;;3.67;3.67;;;;;;;;5091466;27;45521;-75
2023/07/17 07:31:49;;;;;;;;;2.00;2.00;;;;;;;;5101290;27;45371;-76
2023/07/17 07:34:15;;;;;;;;;2.33;2.33;;;;;;;;5086923;27;45418;-74
2023/07/17 07:36:40;;;;;;;;;2.67;2.00;;;;;;;;5072345;28;45175;-74
2023/07/17 07:39:05;;;;;;;;;2.67;2.67;;;;;;;;5086583;28;45267;-75
2023/07/17 07:41:35;;;;;;;;;2.67;2.67;;;;;;;;5087146;28;45364;-76
2023/07/17 07:44:00;;;;;;;;;2.00;2.00;;;;;;;;5089335;28;44818;-74
2023/07/17 07:46:26;;;;;;;;;2.00;2.00;;;;;;;;5086577;28;45248;-74
2023/07/17 07:48:51;;;;;;;;;0.00;0.00;;;;;;;;5072682;28;46066;-76
2023/07/17 07:51:16;;;;;;;;;1.67;1.33;;;;;;;;5089939;28;45357;-76
2023/07/17 07:53:41;;;;;;;;;2.00;2.00;;;;;;;;5074971;28;45365;-77
2023/07/17 07:56:06;;;;;;;;;1.67;1.67;;;;;;;;5073991;28;45346;-76
2023/07/17 07:58:32;;;;;;;;;3.00;1.67;;;;;;;;5087800;28;45252;-77
2023/07/17 08:00:57;;;;;;;;;0.00;0.00;;;;;;;;5065949;28;47969;-77
2023/07/17 08:03:22;;;;;;;;;1.67;1.00;;;;;;;;5088257;28;45212;-78
2023/07/17 08:05:47;;;;;;;;;2.00;2.00;;;;;;;;5071715;28;45181;-75
2023/07/17 08:08:13;;;;;;;;;4.00;3.00;;;;;;;;5082999;28;45138;-76
2023/07/17 08:10:39;;;;;;;;;3.00;1.33;;;;;;;;5087234;28;46556;-78
2023/07/17 08:13:05;;;;;;;;;3.00;3.00;;;;;;;;5085511;28;45447;-75
2023/07/17 08:15:31;;;;;;;;;4.67;4.00;;;;;;;;5081608;28;45368;-77
2023/07/17 08:17:58;;;;;;;;;5.67;3.00;;;;;;;;5080921;28;45485;-79
2023/07/17 08:20:24;;;;;;;;;2.00;1.00;;;;;;;;5062905;28;48552;-78
2023/07/17 08:22:58;;;;;;;;;2.67;2.67;;;;;;;;5081254;28;45174;-76
2023/07/17 08:25:23;;;;;;;;;2.00;2.00;;;;;;;;5058466;28;45382;-76
2023/07/17 08:27:54;;;;;;;;;2.00;2.00;;;;;;;;5081422;28;45145;-78
2023/07/17 08:30:24;;;;;;;;;1.00;1.00;;;;;;;;5099081;27;46260;-77
2023/07/17 08:32:50;;;;;;;;;3.67;2.00;;;;;;;;5101509;27;45298;-76
2023/07/17 08:35:15;;;;;;;;;3.00;3.00;;;;;;;;5083253;27;45595;-76
2023/07/17 08:37:40;;;;;;;;;3.00;2.00;;;;;;;;5083057;27;46076;-76
2023/07/17 08:40:06;;;;;;;;;4.00;2.33;;;;;;;;5082919;27;45521;-75
2023/07/17 08:42:32;;;;;;;;;3.33;2.00;;;;;;;;5082918;27;45269;-76
2023/07/17 08:44:58;;;;;;;;;2.00;2.00;;;;;;;;5101813;27;45368;-79
2023/07/17 08:47:24;;;;;;;;;1.67;1.67;;;;;;;;5103209;27;45374;-74
2023/07/17 09:02:51;;;;;;;;;3.00;2.00;;;;;;;;5023247;28;45292;-75
2023/07/17 09:05:35;;;;;;;;;2.00;2.00;;;;;;;;5020475;28;45589;-77
2023/07/17 09:08:00;;;;;;;;;2.00;2.00;;;;;;;;5017059;28;45368;-76
2023/07/17 09:10:26;;;;;;;;;0.00;0.00;;;;;;;;5089859;27;45452;-75
2023/07/17 09:12:53;;;;;;;;;2.00;2.00;;;;;;;;5102080;27;46237;-75
2023/07/17 09:15:19;;;;;;;;;1.33;1.33;;;;;;;;5107994;27;44706;-74
2023/07/17 09:17:44;;;;;;;;;1.67;1.00;;;;;;;;5085233;27;45229;-76
2023/07/17 09:20:10;;;;;;;;;2.33;2.00;;;;;;;;5084281;27;46450;-75
2023/07/17 09:22:39;;;;;;;;;1.00;1.00;;;;;;;;5104737;27;45365;-76
2023/07/17 09:25:05;;;;;;;;;2.00;1.67;;;;;;;;5100567;27;45498;-74
2023/07/17 09:27:41;;;;;;;;;1.67;1.67;;;;;;;;5099776;27;45309;-76
2023/07/17 09:30:11;;;;;;;;;1.00;1.00;;;;;;;;5071525;28;47028;-75
2023/07/17 09:32:36;;;;;;;;;0.00;0.00;;;;;;;;5085161;27;45308;-75
2023/07/17 09:35:05;;;;;;;;;3.00;1.00;;;;;;;;5086187;28;45338;-75
2023/07/17 09:37:33;;;;;;;;;1.00;1.00;;;;;;;;5090349;28;45292;-75
2023/07/17 09:39:58;;;;;;;;;1.33;1.33;;;;;;;;5083779;28;45459;-74
2023/07/17 09:42:24;;;;;;;;;2.67;2.00;;;;;;;;5086682;28;46119;-74
2023/07/17 09:44:50;;;;;;;;;2.00;2.00;;;;;;;;5089836;28;45294;-76
2023/07/17 09:47:15;;;;;;;;;0.33;0.33;;;;;;;;5097620;28;44682;-76
2023/07/17 09:49:41;;;;;;;;;1.33;1.00;;;;;;;;5069015;28;46065;-74
2023/07/17 09:52:06;;;;;;;;;3.00;3.00;;;;;;;;5087557;28;45200;-74
2023/07/17 09:54:33;;;;;;;;;2.00;2.00;;;;;;;;5066038;28;45890;-74
2023/07/17 09:56:58;;;;;;;;;2.00;2.00;;;;;;;;5083505;28;45486;-75
2023/07/17 09:59:26;;;;;;;;;2.00;2.00;;;;;;;;5083243;28;45369;-74
2023/07/17 10:01:52;;;;;;;;;2.67;2.67;;;;;;;;5082475;28;45360;-75
2023/07/17 10:04:24;;;;;;;;;0.00;0.00;;;;;;;;5065274;28;45654;-75
2023/07/17 10:06:52;;;;;;;;;2.33;1.67;;;;;;;;5082373;28;45409;-76
2023/07/17 10:09:18;;;;;;;;;3.00;1.33;;;;;;;;5063318;28;47025;-78
2023/07/17 10:11:44;;;;;;;;;1.00;1.00;;;;;;;;5082897;28;45350;-76
2023/07/17 10:14:09;;;;;;;;;1.00;1.00;;;;;;;;5081886;28;45547;-75
2023/07/17 10:16:35;;;;;;;;;4.00;2.67;;;;;;;;5063742;28;45221;-75
2023/07/17 10:19:00;;;;;;;;;4.33;3.00;;;;;;;;5081565;28;45410;-77
2023/07/17 10:21:26;;;;;;;;;1.00;1.00;;;;;;;;5063214;28;47045;-76
2023/07/17 10:23:51;;;;;;;;;2.33;2.33;;;;;;;;5081175;28;45261;-77
2023/07/17 10:26:18;;;;;;;;;1.33;1.33;;;;;;;;5081294;28;45463;-77
2023/07/17 10:28:47;;;;;;;;;0.00;0.00;;;;;;;;5085582;27;45499;-77
2023/07/17 10:31:19;;;;;;;;;2.00;2.00;;;;;;;;5083659;27;47356;-78
2023/07/17 10:33:46;;;;;;;;;1.33;1.33;;;;;;;;5102005;27;45371;-78
2023/07/17 10:36:12;;;;;;;;;1.00;1.00;;;;;;;;5083554;27;45369;-75
2023/07/17 10:38:37;;;;;;;;;2.33;2.00;;;;;;;;5101675;27;45402;-78
2023/07/17 10:41:23;;;;;;;;;1.00;1.00;;;;;;;;5083225;27;47635;-77
2023/07/17 10:43:52;;;;;;;;;3.00;3.00;;;;;;;;5100628;27;45216;-76
2023/07/17 10:46:17;;;;;;;;;0.25;0.25;;;;;;;;5101821;27;45370;-79
2023/07/17 10:48:42;;;;;;;;;4.00;1.00;;;;;;;;5101821;27;45484;-80
2023/07/17 10:51:07;;;;;;;;;0.50;0.50;;;;;;;;5101553;27;45554;-77
2023/07/17 10:53:33;;;;;;;;;4.00;3.00;;;;;;;;5101617;27;45315;-79
2023/07/17 10:55:58;;;;;;;;;1.50;1.00;;;;;;;;5079621;27;46467;-79
2023/07/17 10:58:23;;;;;;;;;0.00;0.00;;;;;;;;5062060;28;45869;-77
2023/07/17 11:00:49;;;;;;;;;0.00;0.00;;;;;;;;5080648;27;46112;-76
2023/07/17 11:03:15;;;;;;;;;1.00;1.00;;;;;;;;5080747;28;45324;-77
2023/07/17 11:05:40;;;;;;;;;0.00;0.00;;;;;;;;5061732;28;45422;-79
2023/07/17 11:08:10;;;;;;;;;1.00;1.00;;;;;;;;5081000;28;45507;-79
2023/07/17 11:10:36;;;;;;;;;1.67;1.00;;;;;;;;5062954;28;47272;-77
2023/07/17 11:13:05;;;;;;;;;1.00;1.00;;;;;;;;5077467;28;45201;-76
2023/07/17 11:15:31;;;;;;;;;1.00;1.00;;;;;;;;5077830;27;45296;-79
2023/07/17 11:17:57;;;;;;;;;1.00;1.00;;;;;;;;5080196;28;45496;-79
2023/07/17 11:20:23;;;;;;;;;1.00;1.00;;;;;;;;5061673;28;48385;-80
2023/07/17 11:22:48;;;;;;;;;1.67;1.67;;;;;;;;5080734;28;45418;-77
2023/07/17 11:25:13;;;;;;;;;1.67;1.67;;;;;;;;5080656;27;45561;-78
2023/07/17 11:27:40;;;;;;;;;1.33;1.00;;;;;;;;5080909;28;45467;-77
2023/07/17 11:30:26;;;;;;;;;1.00;1.00;;;;;;;;5095616;27;45418;-78
2023/07/17 11:32:57;;;;;;;;;1.00;1.00;;;;;;;;5098873;27;45461;-78
2023/07/17 11:35:22;;;;;;;;;1.67;1.00;;;;;;;;5081976;27;45671;-76
2023/07/17 11:37:47;;;;;;;;;1.00;0.33;;;;;;;;5075601;28;46063;-79
2023/07/17 11:40:12;;;;;;;;;1.00;0.00;;;;;;;;5063145;28;47255;-78
2023/07/17 11:42:56;;;;;;;;;0.00;0.00;;;;;;;;5082500;27;45406;-78
2023/07/17 11:45:25;;;;;;;;;2.00;2.00;;;;;;;;5081772;28;45363;-79
2023/07/17 11:47:55;;;;;;;;;1.00;0.00;;;;;;;;5081713;27;46199;-78
2023/07/17 11:50:22;;;;;;;;;0.00;0.00;;;;;;;;5080755;28;46190;-78
2023/07/17 11:52:47;;;;;;;;;0.67;0.67;;;;;;;;5082154;27;45342;-79
2023/07/17 11:55:13;;;;;;;;;0.67;0.00;;;;;;;;5062702;28;45411;-77
2023/07/17 11:57:38;;;;;;;;;0.75;0.75;;;;;;;;5062628;28;46021;-78
2023/07/17 12:00:04;;;;;;;;;0.33;0.33;;;;;;;;5082970;28;45336;-78
2023/07/17 12:02:30;;;;;;;;;0.50;0.50;;;;;;;;5063351;28;45957;-79
2023/07/17 12:04:59;;;;;;;;;0.00;0.00;;;;;;;;5060085;28;45837;-78
2023/07/17 12:07:25;;;;;;;;;1.00;0.00;;;;;;;;5079414;28;45436;-78
2023/07/17 12:09:50;;;;;;;;;1.00;1.00;;;;;;;;5079085;28;45429;-79
2023/07/17 12:12:16;;;;;;;;;1.00;1.00;;;;;;;;5063597;28;45399;-78
2023/07/17 12:14:41;;;;;;;;;0.67;0.00;;;;;;;;5064020;28;45718;-79
2023/07/17 12:17:06;;;;;;;;;0.00;0.00;;;;;;;;5082368;28;45319;-78
2023/07/17 12:19:31;;;;;;;;;0.00;0.00;;;;;;;;5082898;28;46643;-78
2023/07/17 12:21:56;;;;;;;;;0.00;0.00;;;;;;;;5083235;28;45263;-78
2023/07/17 12:24:21;;;;;;;;;0.00;0.00;;;;;;;;5064436;28;45904;-78
2023/07/17 12:26:47;;;;;;;;;1.00;0.50;;;;;;;;5082058;28;45477;-78
2023/07/17 12:29:12;;;;;;;;;0.00;0.00;;;;;;;;5089037;27;45425;-78
2023/07/17 12:31:37;;;;;;;;;2.00;2.00;;;;;;;;5101504;27;45305;-79
2023/07/17 12:34:02;;;;;;;;;1.00;1.00;;;;;;;;5081501;27;45300;-78
2023/07/17 12:36:27;;;;;;;;;1.25;1.25;;;;;;;;5059777;28;47256;-79
2023/07/17 12:38:55;;;;;;;;;0.00;0.00;;;;;;;;5076685;28;45390;-80
2023/07/17 12:41:20;;;;;;;;;0.50;0.00;;;;;;;;5060726;28;45323;-79
2023/07/17 12:43:45;;;;;;;;;1.00;1.00;;;;;;;;5062404;28;45298;-79
2023/07/17 12:46:10;;;;;;;;;1.00;1.00;;;;;;;;5081260;28;45433;-78
2023/07/17 12:48:35;;;;;;;;;2.00;1.00;;;;;;;;5081127;28;45526;-79
2023/07/17 12:51:01;;;;;;;;;0.75;0.75;;;;;;;;5079978;28;45346;-77
2023/07/17 12:53:26;;;;;;;;;0.00;0.00;;;;;;;;5061443;28;45931;-80
2023/07/17 12:55:51;;;;;;;;;1.25;1.00;;;;;;;;5080517;28;45417;-77
2023/07/17 12:58:16;;;;;;;;;0.00;0.00;;;;;;;;5081061;28;45428;-79
2023/07/17 13:00:42;;;;;;;;;1.00;1.00;;;;;;;;5080221;28;45481;-75
2023/07/17 13:03:07;;;;;;;;;0.50;0.50;;;;;;;;5065309;28;45392;-75
2023/07/17 13:05:33;;;;;;;;;1.50;1.50;;;;;;;;5062978;28;46934;-75
2023/07/17 13:07:58;;;;;;;;;0.00;0.00;;;;;;;;5083600;28;45380;-77
2023/07/17 13:10:23;;;;;;;;;1.00;0.00;;;;;;;;5084768;28;45302;-76
2023/07/17 13:12:48;;;;;;;;;1.00;1.00;;;;;;;;5085348;28;45342;-77
2023/07/17 13:15:13;;;;;;;;;3.00;2.50;;;;;;;;5069298;28;46771;-76
2023/07/17 13:17:39;;;;;;;;;1.25;0.50;;;;;;;;5084743;28;46348;-75
2023/07/17 13:20:04;;;;;;;;;0.75;0.75;;;;;;;;5070024;28;45345;-76
2023/07/17 13:22:30;;;;;;;;;0.00;0.00;;;;;;;;5087822;28;45342;-76
2023/07/17 13:24:55;;;;;;;;;1.00;1.00;;;;;;;;5089219;28;45297;-77
2023/07/17 13:27:20;;;;;;;;;1.25;1.25;;;;;;;;5086952;28;45510;-76
2023/07/17 13:29:45;;;;;;;;;1.00;1.00;;;;;;;;5095594;27;45358;-75
2023/07/17 13:32:11;;;;;;;;;2.00;2.00;;;;;;;;5104633;27;45345;-75
2023/07/17 13:34:37;;;;;;;;;2.00;1.50;;;;;;;;5104909;27;45632;-75
2023/07/17 13:37:02;;;;;;;;;1.00;1.00;;;;;;;;5084507;27;47933;-76
2023/07/17 13:39:27;;;;;;;;;2.00;2.00;;;;;;;;5084577;27;45335;-75
2023/07/17 13:41:53;;;;;;;;;0.00;0.00;;;;;;;;5103304;27;45331;-75
2023/07/17 13:44:19;;;;;;;;;0.25;0.25;;;;;;;;5102523;27;45266;-75
2023/07/17 13:46:47;;;;;;;;;1.75;0.00;;;;;;;;5084497;27;48455;-75
2023/07/17 13:49:12;;;;;;;;;5.00;1.50;;;;;;;;5102807;27;45386;-76
2023/07/17 13:51:38;;;;;;;;;2.00;0.75;;;;;;;;5102842;27;45279;-76
2023/07/17 13:54:04;;;;;;;;;0.00;0.00;;;;;;;;5102641;27;45364;-75
2023/07/17 13:56:30;;;;;;;;;0.00;0.00;;;;;;;;5103169;27;45350;-75
2023/07/17 13:58:55;;;;;;;;;1.00;1.00;;;;;;;;5103009;27;45316;-78
2023/07/17 14:01:20;;;;;;;;;1.00;0.67;;;;;;;;5086926;27;45311;-78
2023/07/17 14:03:46;;;;;;;;;0.67;0.67;;;;;;;;5105743;27;45421;-79
2023/07/17 14:06:11;;;;;;;;;1.00;1.00;;;;;;;;5088313;27;47348;-76
2023/07/17 14:08:36;;;;;;;;;0.25;0.25;;;;;;;;5105688;27;45487;-76
2023/07/17 14:11:01;;;;;;;;;1.00;1.00;;;;;;;;5105950;27;45267;-78
2023/07/17 14:13:27;;;;;;;;;1.75;1.75;;;;;;;;5089366;27;46166;-76
2023/07/17 14:15:52;;;;;;;;;1.00;1.00;;;;;;;;5111718;27;45339;-75
2023/07/17 14:18:17;;;;;;;;;1.75;1.25;;;;;;;;5107915;27;45408;-76
2023/07/17 14:20:43;;;;;;;;;1.00;1.00;;;;;;;;5089868;27;45439;-77
2023/07/17 14:23:08;;;;;;;;;0.00;0.00;;;;;;;;5087084;28;45260;-78
2023/07/17 14:25:33;;;;;;;;;2.00;0.50;;;;;;;;5083623;28;45404;-76
2023/07/17 14:27:58;;;;;;;;;0.50;0.25;;;;;;;;5091365;28;45259;-75
2023/07/17 14:30:23;;;;;;;;;0.00;0.00;;;;;;;;5087291;27;45303;-77
2023/07/17 14:32:49;;;;;;;;;0.00;0.00;;;;;;;;5078807;28;45469;-77
2023/07/17 14:35:14;;;;;;;;;0.00;0.00;;;;;;;;5072554;28;46226;-78
2023/07/17 14:37:39;;;;;;;;;0.00;0.00;;;;;;;;5079452;28;45241;-78
2023/07/17 14:40:05;;;;;;;;;0.00;0.00;;;;;;;;5082434;28;45444;-79
2023/07/17 14:42:30;;;;;;;;;0.00;0.00;;;;;;;;5082900;28;45326;-78
2023/07/17 14:44:55;;;;;;;;;1.75;1.50;;;;;;;;5081403;28;45319;-77
2023/07/17 14:47:21;;;;;;;;;0.00;0.00;;;;;;;;5081111;28;45350;-82